sensor_id;sensor_type;location;lat;lon;timestamp;P1;durP1;ratioP1;P2;durP2;ratioP2
50355;SDS011;36264;51.296;-0.602;2023-01-29T00:01:50;8.55;;;5.38;;
50355;SDS011;36264;51.296;-0.602;2023-01-29T00:04:16;8.95;;;5.13;;
50355;SDS011;36264;51.296;-0.602;2023-01-29T00:06:42;8.85;;;5.53;;
50355;SDS011;36264;51.296;-0.602;2023-01-29T00:09:07;9.20;;;5.18;;
50355;SDS011;36264;51.296;-0.602;2023-01-29T00:11:33;7.80;;;4.80;;
50355;SDS011;36264;51.296;-0.602;2023-01-29T00:13:59;8.88;;;5.00;;
50355;SDS011;36264;51.296;-0.602;2023-01-29T00:16:24;7.50;;;4.82;;
50355;SDS011;36264;51.296;-0.602;2023-01-29T00:18:50;7.88;;;4.85;;
50355;SDS011;36264;51.296;-0.602;2023-01-29T00:21:16;11.55;;;6.68;;
50355;SDS011;36264;51.296;-0.602;2023-01-29T00:23:44;10.20;;;5.85;;
50355;SDS011;36264;51.296;-0.602;2023-01-29T00:26:10;9.50;;;5.63;;
50355;SDS011;36264;51.296;-0.602;2023-01-29T00:28:36;10.07;;;6.20;;
50355;SDS011;36264;51.296;-0.602;2023-01-29T00:31:12;10.07;;;5.88;;
50355;SDS011;36264;51.296;-0.602;2023-01-29T00:33:41;8.32;;;5.15;;
50355;SDS011;36264;51.296;-0.602;2023-01-29T00:36:08;10.00;;;5.20;;
50355;SDS011;36264;51.296;-0.602;2023-01-29T00:38:35;8.57;;;5.13;;
50355;SDS011;36264;51.296;-0.602;2023-01-29T00:41:05;7.78;;;4.75;;
50355;SDS011;36264;51.296;-0.602;2023-01-29T00:43:50;11.23;;;5.43;;
50355;SDS011;36264;51.296;-0.602;2023-01-29T00:46:34;10.00;;;5.88;;
50355;SDS011;36264;51.296;-0.602;2023-01-29T00:49:00;9.57;;;5.60;;
50355;SDS011;36264;51.296;-0.602;2023-01-29T00:51:25;8.27;;;4.68;;
50355;SDS011;36264;51.296;-0.602;2023-01-29T00:53:50;12.30;;;6.32;;
50355;SDS011;36264;51.296;-0.602;2023-01-29T00:56:16;10.27;;;5.40;;
50355;SDS011;36264;51.296;-0.602;2023-01-29T00:58:41;10.20;;;5.30;;
50355;SDS011;36264;51.296;-0.602;2023-01-29T01:01:06;10.30;;;6.07;;
50355;SDS011;36264;51.296;-0.602;2023-01-29T01:03:32;11.45;;;5.93;;
50355;SDS011;36264;51.296;-0.602;2023-01-29T01:06:03;10.13;;;5.55;;
50355;SDS011;36264;51.296;-0.602;2023-01-29T01:08:30;8.68;;;5.15;;
50355;SDS011;36264;51.296;-0.602;2023-01-29T01:11:14;10.00;;;5.65;;
50355;SDS011;36264;51.296;-0.602;2023-01-29T01:13:39;9.20;;;5.40;;
50355;SDS011;36264;51.296;-0.602;2023-01-29T01:16:08;8.70;;;4.90;;
50355;SDS011;36264;51.296;-0.602;2023-01-29T01:18:35;9.00;;;5.22;;
50355;SDS011;36264;51.296;-0.602;2023-01-29T01:21:02;9.63;;;5.45;;
50355;SDS011;36264;51.296;-0.602;2023-01-29T01:23:27;8.55;;;4.82;;
50355;SDS011;36264;51.296;-0.602;2023-01-29T01:25:53;7.85;;;4.65;;
50355;SDS011;36264;51.296;-0.602;2023-01-29T01:28:18;10.82;;;6.13;;
50355;SDS011;36264;51.296;-0.602;2023-01-29T01:30:43;7.65;;;4.45;;
50355;SDS011;36264;51.296;-0.602;2023-01-29T01:33:09;8.32;;;5.00;;
50355;SDS011;36264;51.296;-0.602;2023-01-29T01:35:34;7.82;;;5.20;;
50355;SDS011;36264;51.296;-0.602;2023-01-29T01:38:00;9.30;;;5.03;;
50355;SDS011;36264;51.296;-0.602;2023-01-29T01:40:25;9.77;;;5.78;;
50355;SDS011;36264;51.296;-0.602;2023-01-29T01:42:51;7.90;;;4.85;;
50355;SDS011;36264;51.296;-0.602;2023-01-29T01:45:53;8.50;;;5.25;;
50355;SDS011;36264;51.296;-0.602;2023-01-29T01:48:19;8.05;;;4.90;;
50355;SDS011;36264;51.296;-0.602;2023-01-29T01:50:49;9.48;;;5.60;;
50355;SDS011;36264;51.296;-0.602;2023-01-29T01:53:20;9.05;;;5.38;;
50355;SDS011;36264;51.296;-0.602;2023-01-29T01:55:52;9.00;;;5.10;;
50355;SDS011;36264;51.296;-0.602;2023-01-29T01:58:24;8.02;;;4.78;;
50355;SDS011;36264;51.296;-0.602;2023-01-29T02:01:02;7.55;;;4.53;;
50355;SDS011;36264;51.296;-0.602;2023-01-29T02:03:30;8.43;;;5.38;;
50355;SDS011;36264;51.296;-0.602;2023-01-29T02:06:18;11.05;;;6.00;;
50355;SDS011;36264;51.296;-0.602;2023-01-29T02:09:07;8.45;;;5.05;;
50355;SDS011;36264;51.296;-0.602;2023-01-29T02:11:55;8.00;;;4.70;;
50355;SDS011;36264;51.296;-0.602;2023-01-29T02:14:20;7.68;;;5.03;;
50355;SDS011;36264;51.296;-0.602;2023-01-29T02:16:46;8.88;;;5.18;;
50355;SDS011;36264;51.296;-0.602;2023-01-29T02:19:17;7.78;;;4.90;;
50355;SDS011;36264;51.296;-0.602;2023-01-29T02:32:55;8.73;;;5.43;;
50355;SDS011;36264;51.296;-0.602;2023-01-29T02:35:33;7.50;;;4.50;;
50355;SDS011;36264;51.296;-0.602;2023-01-29T02:44:19;9.48;;;5.22;;
50355;SDS011;36264;51.296;-0.602;2023-01-29T02:49:37;8.52;;;5.18;;
50355;SDS011;36264;51.296;-0.602;2023-01-29T02:52:34;9.65;;;5.13;;
50355;SDS011;36264;51.296;-0.602;2023-01-29T02:58:26;9.93;;;5.38;;
50355;SDS011;36264;51.296;-0.602;2023-01-29T03:00:59;7.33;;;4.67;;
50355;SDS011;36264;51.296;-0.602;2023-01-29T03:03:35;10.15;;;5.68;;
50355;SDS011;36264;51.296;-0.602;2023-01-29T03:06:08;8.98;;;5.00;;
50355;SDS011;36264;51.296;-0.602;2023-01-29T03:11:29;11.35;;;6.57;;
50355;SDS011;36264;51.296;-0.602;2023-01-29T03:14:03;12.10;;;6.85;;
50355;SDS011;36264;51.296;-0.602;2023-01-29T03:16:48;9.88;;;5.55;;
50355;SDS011;36264;51.296;-0.602;2023-01-29T03:22:03;11.30;;;6.35;;
50355;SDS011;36264;51.296;-0.602;2023-01-29T03:27:59;12.80;;;7.03;;
50355;SDS011;36264;51.296;-0.602;2023-01-29T03:30:48;11.32;;;6.00;;
50355;SDS011;36264;51.296;-0.602;2023-01-29T03:33:47;14.20;;;7.68;;
50355;SDS011;36264;51.296;-0.602;2023-01-29T03:36:20;12.65;;;7.53;;
50355;SDS011;36264;51.296;-0.602;2023-01-29T03:38:51;12.68;;;7.35;;
50355;SDS011;36264;51.296;-0.602;2023-01-29T03:41:21;13.05;;;7.20;;
50355;SDS011;36264;51.296;-0.602;2023-01-29T03:46:47;9.53;;;5.77;;
50355;SDS011;36264;51.296;-0.602;2023-01-29T03:52:08;9.38;;;5.68;;
50355;SDS011;36264;51.296;-0.602;2023-01-29T03:54:53;9.52;;;5.57;;
50355;SDS011;36264;51.296;-0.602;2023-01-29T03:57:40;11.18;;;6.82;;
50355;SDS011;36264;51.296;-0.602;2023-01-29T04:00:31;9.75;;;5.95;;
50355;SDS011;36264;51.296;-0.602;2023-01-29T04:05:44;10.77;;;5.60;;
50355;SDS011;36264;51.296;-0.602;2023-01-29T04:08:14;8.88;;;4.97;;
50355;SDS011;36264;51.296;-0.602;2023-01-29T04:10:45;8.00;;;4.60;;
50355;SDS011;36264;51.296;-0.602;2023-01-29T04:13:12;10.90;;;6.28;;
50355;SDS011;36264;51.296;-0.602;2023-01-29T04:15:44;7.85;;;4.70;;
50355;SDS011;36264;51.296;-0.602;2023-01-29T04:18:13;9.38;;;5.53;;
50355;SDS011;36264;51.296;-0.602;2023-01-29T04:20:39;9.13;;;4.68;;
50355;SDS011;36264;51.296;-0.602;2023-01-29T04:23:05;11.25;;;5.40;;
50355;SDS011;36264;51.296;-0.602;2023-01-29T04:25:34;10.60;;;5.22;;
50355;SDS011;36264;51.296;-0.602;2023-01-29T04:39:06;8.48;;;4.72;;
50355;SDS011;36264;51.296;-0.602;2023-01-29T04:41:43;8.73;;;4.70;;
50355;SDS011;36264;51.296;-0.602;2023-01-29T04:44:32;7.55;;;4.47;;
50355;SDS011;36264;51.296;-0.602;2023-01-29T04:49:45;8.48;;;4.85;;
50355;SDS011;36264;51.296;-0.602;2023-01-29T04:57:52;7.22;;;4.32;;
50355;SDS011;36264;51.296;-0.602;2023-01-29T05:00:27;9.93;;;5.28;;
50355;SDS011;36264;51.296;-0.602;2023-01-29T05:02:58;8.25;;;4.70;;
50355;SDS011;36264;51.296;-0.602;2023-01-29T05:05:25;7.25;;;4.50;;
50355;SDS011;36264;51.296;-0.602;2023-01-29T05:07:51;7.20;;;4.35;;
50355;SDS011;36264;51.296;-0.602;2023-01-29T05:10:19;8.60;;;4.43;;
50355;SDS011;36264;51.296;-0.602;2023-01-29T05:12:48;11.10;;;5.22;;
50355;SDS011;36264;51.296;-0.602;2023-01-29T05:15:22;8.60;;;5.15;;
50355;SDS011;36264;51.296;-0.602;2023-01-29T05:17:50;9.82;;;4.90;;
50355;SDS011;36264;51.296;-0.602;2023-01-29T05:20:18;8.73;;;5.40;;
50355;SDS011;36264;51.296;-0.602;2023-01-29T05:22:44;9.15;;;4.60;;
50355;SDS011;36264;51.296;-0.602;2023-01-29T05:25:18;9.38;;;4.65;;
50355;SDS011;36264;51.296;-0.602;2023-01-29T05:27:46;9.10;;;4.78;;
50355;SDS011;36264;51.296;-0.602;2023-01-29T05:30:36;7.60;;;4.20;;
50355;SDS011;36264;51.296;-0.602;2023-01-29T05:33:03;6.80;;;4.20;;
50355;SDS011;36264;51.296;-0.602;2023-01-29T05:35:29;8.13;;;4.68;;
50355;SDS011;36264;51.296;-0.602;2023-01-29T05:37:56;9.15;;;5.35;;
50355;SDS011;36264;51.296;-0.602;2023-01-29T05:40:23;9.35;;;4.78;;
50355;SDS011;36264;51.296;-0.602;2023-01-29T05:42:49;9.88;;;5.35;;
50355;SDS011;36264;51.296;-0.602;2023-01-29T05:45:15;9.50;;;5.25;;
50355;SDS011;36264;51.296;-0.602;2023-01-29T05:47:41;10.35;;;5.68;;
50355;SDS011;36264;51.296;-0.602;2023-01-29T05:50:07;7.88;;;4.55;;
50355;SDS011;36264;51.296;-0.602;2023-01-29T05:52:33;8.63;;;4.80;;
50355;SDS011;36264;51.296;-0.602;2023-01-29T05:54:58;9.07;;;4.75;;
50355;SDS011;36264;51.296;-0.602;2023-01-29T05:57:23;10.05;;;5.75;;
50355;SDS011;36264;51.296;-0.602;2023-01-29T05:59:49;8.52;;;5.03;;
50355;SDS011;36264;51.296;-0.602;2023-01-29T06:02:14;7.50;;;4.30;;
50355;SDS011;36264;51.296;-0.602;2023-01-29T06:04:40;9.27;;;5.03;;
50355;SDS011;36264;51.296;-0.602;2023-01-29T06:07:05;7.75;;;4.45;;
50355;SDS011;36264;51.296;-0.602;2023-01-29T06:09:30;8.02;;;3.95;;
50355;SDS011;36264;51.296;-0.602;2023-01-29T06:11:56;7.50;;;4.32;;
50355;SDS011;36264;51.296;-0.602;2023-01-29T06:14:21;8.93;;;5.20;;
50355;SDS011;36264;51.296;-0.602;2023-01-29T06:16:46;8.65;;;4.82;;
50355;SDS011;36264;51.296;-0.602;2023-01-29T06:19:12;8.68;;;4.38;;
50355;SDS011;36264;51.296;-0.602;2023-01-29T06:21:37;8.98;;;5.20;;
50355;SDS011;36264;51.296;-0.602;2023-01-29T06:24:02;7.72;;;4.50;;
50355;SDS011;36264;51.296;-0.602;2023-01-29T06:26:28;8.70;;;4.65;;
50355;SDS011;36264;51.296;-0.602;2023-01-29T06:28:53;7.72;;;4.65;;
50355;SDS011;36264;51.296;-0.602;2023-01-29T06:31:19;7.65;;;4.40;;
50355;SDS011;36264;51.296;-0.602;2023-01-29T06:33:44;8.23;;;4.72;;
50355;SDS011;36264;51.296;-0.602;2023-01-29T06:36:09;10.20;;;4.68;;
50355;SDS011;36264;51.296;-0.602;2023-01-29T06:38:35;10.05;;;4.35;;
50355;SDS011;36264;51.296;-0.602;2023-01-29T06:41:06;7.88;;;4.50;;
50355;SDS011;36264;51.296;-0.602;2023-01-29T06:43:36;7.50;;;4.25;;
50355;SDS011;36264;51.296;-0.602;2023-01-29T06:46:02;8.07;;;4.63;;
50355;SDS011;36264;51.296;-0.602;2023-01-29T06:48:27;8.70;;;4.25;;
50355;SDS011;36264;51.296;-0.602;2023-01-29T06:50:53;9.07;;;4.68;;
50355;SDS011;36264;51.296;-0.602;2023-01-29T06:53:19;8.85;;;5.20;;
50355;SDS011;36264;51.296;-0.602;2023-01-29T06:55:51;8.40;;;4.97;;
50355;SDS011;36264;51.296;-0.602;2023-01-29T06:58:17;8.27;;;4.97;;
50355;SDS011;36264;51.296;-0.602;2023-01-29T07:00:43;7.38;;;4.43;;
50355;SDS011;36264;51.296;-0.602;2023-01-29T07:03:08;9.50;;;4.68;;
50355;SDS011;36264;51.296;-0.602;2023-01-29T07:05:35;7.10;;;4.50;;
50355;SDS011;36264;51.296;-0.602;2023-01-29T07:08:00;8.80;;;4.72;;
50355;SDS011;36264;51.296;-0.602;2023-01-29T07:10:26;8.98;;;5.22;;
50355;SDS011;36264;51.296;-0.602;2023-01-29T07:12:51;9.32;;;5.07;;
50355;SDS011;36264;51.296;-0.602;2023-01-29T07:15:17;7.93;;;4.55;;
50355;SDS011;36264;51.296;-0.602;2023-01-29T07:18:05;9.48;;;5.20;;
50355;SDS011;36264;51.296;-0.602;2023-01-29T07:20:36;9.38;;;4.75;;
50355;SDS011;36264;51.296;-0.602;2023-01-29T07:23:02;9.63;;;5.75;;
50355;SDS011;36264;51.296;-0.602;2023-01-29T07:25:28;7.82;;;4.50;;
50355;SDS011;36264;51.296;-0.602;2023-01-29T07:27:54;9.32;;;5.30;;
50355;SDS011;36264;51.296;-0.602;2023-01-29T07:30:20;7.85;;;3.80;;
50355;SDS011;36264;51.296;-0.602;2023-01-29T07:32:46;6.90;;;4.13;;
50355;SDS011;36264;51.296;-0.602;2023-01-29T07:35:11;6.65;;;4.30;;
50355;SDS011;36264;51.296;-0.602;2023-01-29T07:37:37;6.55;;;3.75;;
50355;SDS011;36264;51.296;-0.602;2023-01-29T07:40:03;7.60;;;4.18;;
50355;SDS011;36264;51.296;-0.602;2023-01-29T07:44:59;8.88;;;4.10;;
50355;SDS011;36264;51.296;-0.602;2023-01-29T07:47:25;7.35;;;4.38;;
50355;SDS011;36264;51.296;-0.602;2023-01-29T07:49:50;8.95;;;4.38;;
50355;SDS011;36264;51.296;-0.602;2023-01-29T07:52:15;7.50;;;4.22;;
50355;SDS011;36264;51.296;-0.602;2023-01-29T07:54:42;8.00;;;4.47;;
50355;SDS011;36264;51.296;-0.602;2023-01-29T07:57:08;9.73;;;4.72;;
50355;SDS011;36264;51.296;-0.602;2023-01-29T07:59:33;8.68;;;4.53;;
50355;SDS011;36264;51.296;-0.602;2023-01-29T08:01:58;10.50;;;5.30;;
50355;SDS011;36264;51.296;-0.602;2023-01-29T08:04:24;9.05;;;5.28;;
50355;SDS011;36264;51.296;-0.602;2023-01-29T08:06:49;11.48;;;5.22;;
50355;SDS011;36264;51.296;-0.602;2023-01-29T08:09:14;10.48;;;5.18;;
50355;SDS011;36264;51.296;-0.602;2023-01-29T08:11:40;8.80;;;4.68;;
50355;SDS011;36264;51.296;-0.602;2023-01-29T08:14:05;5.90;;;3.67;;
50355;SDS011;36264;51.296;-0.602;2023-01-29T08:16:33;10.32;;;4.93;;
50355;SDS011;36264;51.296;-0.602;2023-01-29T08:19:00;10.57;;;5.65;;
50355;SDS011;36264;51.296;-0.602;2023-01-29T08:21:26;11.95;;;5.10;;
50355;SDS011;36264;51.296;-0.602;2023-01-29T08:23:51;9.25;;;4.95;;
50355;SDS011;36264;51.296;-0.602;2023-01-29T08:26:16;9.68;;;4.50;;
50355;SDS011;36264;51.296;-0.602;2023-01-29T08:28:42;9.73;;;5.35;;
50355;SDS011;36264;51.296;-0.602;2023-01-29T08:31:14;8.10;;;4.53;;
50355;SDS011;36264;51.296;-0.602;2023-01-29T08:33:40;9.15;;;4.65;;
50355;SDS011;36264;51.296;-0.602;2023-01-29T08:36:06;9.80;;;5.00;;
50355;SDS011;36264;51.296;-0.602;2023-01-29T08:38:32;9.60;;;4.68;;
50355;SDS011;36264;51.296;-0.602;2023-01-29T08:40:57;8.25;;;4.57;;
50355;SDS011;36264;51.296;-0.602;2023-01-29T08:43:23;8.00;;;3.72;;
50355;SDS011;36264;51.296;-0.602;2023-01-29T08:45:48;7.40;;;4.13;;
50355;SDS011;36264;51.296;-0.602;2023-01-29T08:48:13;8.75;;;4.57;;
50355;SDS011;36264;51.296;-0.602;2023-01-29T08:50:39;8.30;;;4.30;;
50355;SDS011;36264;51.296;-0.602;2023-01-29T08:53:05;8.63;;;4.90;;
50355;SDS011;36264;51.296;-0.602;2023-01-29T08:55:32;8.80;;;4.88;;
50355;SDS011;36264;51.296;-0.602;2023-01-29T08:58:05;10.32;;;4.72;;
50355;SDS011;36264;51.296;-0.602;2023-01-29T09:00:32;9.45;;;4.72;;
50355;SDS011;36264;51.296;-0.602;2023-01-29T09:02:59;8.73;;;4.78;;
50355;SDS011;36264;51.296;-0.602;2023-01-29T09:05:25;7.68;;;4.63;;
50355;SDS011;36264;51.296;-0.602;2023-01-29T09:07:52;9.13;;;5.15;;
50355;SDS011;36264;51.296;-0.602;2023-01-29T09:10:18;9.98;;;5.53;;
50355;SDS011;36264;51.296;-0.602;2023-01-29T09:12:43;9.98;;;5.22;;
50355;SDS011;36264;51.296;-0.602;2023-01-29T09:15:09;9.20;;;4.63;;
50355;SDS011;36264;51.296;-0.602;2023-01-29T09:17:35;8.50;;;4.57;;
50355;SDS011;36264;51.296;-0.602;2023-01-29T09:20:00;8.70;;;4.28;;
50355;SDS011;36264;51.296;-0.602;2023-01-29T09:22:26;8.90;;;4.97;;
50355;SDS011;36264;51.296;-0.602;2023-01-29T09:24:51;8.77;;;4.80;;
50355;SDS011;36264;51.296;-0.602;2023-01-29T09:27:16;9.25;;;4.90;;
50355;SDS011;36264;51.296;-0.602;2023-01-29T09:29:42;7.65;;;4.32;;
50355;SDS011;36264;51.296;-0.602;2023-01-29T09:32:07;10.68;;;5.30;;
50355;SDS011;36264;51.296;-0.602;2023-01-29T09:34:33;8.68;;;5.05;;
50355;SDS011;36264;51.296;-0.602;2023-01-29T09:36:59;8.80;;;5.18;;
50355;SDS011;36264;51.296;-0.602;2023-01-29T09:39:24;8.48;;;4.72;;
50355;SDS011;36264;51.296;-0.602;2023-01-29T09:47:13;9.82;;;5.18;;
50355;SDS011;36264;51.296;-0.602;2023-01-29T09:49:45;9.32;;;5.15;;
50355;SDS011;36264;51.296;-0.602;2023-01-29T09:52:24;7.63;;;4.43;;
50355;SDS011;36264;51.296;-0.602;2023-01-29T09:55:06;11.88;;;5.18;;
50355;SDS011;36264;51.296;-0.602;2023-01-29T09:57:45;9.43;;;5.28;;
50355;SDS011;36264;51.296;-0.602;2023-01-29T10:00:14;8.40;;;4.38;;
50355;SDS011;36264;51.296;-0.602;2023-01-29T10:02:46;7.35;;;3.90;;
50355;SDS011;36264;51.296;-0.602;2023-01-29T10:08:12;9.25;;;4.78;;
50355;SDS011;36264;51.296;-0.602;2023-01-29T10:10:50;8.40;;;4.88;;
50355;SDS011;36264;51.296;-0.602;2023-01-29T10:16:17;8.77;;;4.47;;
50355;SDS011;36264;51.296;-0.602;2023-01-29T10:19:07;9.60;;;4.70;;
50355;SDS011;36264;51.296;-0.602;2023-01-29T10:27:14;8.02;;;4.60;;
50355;SDS011;36264;51.296;-0.602;2023-01-29T10:29:41;7.28;;;5.03;;
50355;SDS011;36264;51.296;-0.602;2023-01-29T10:32:10;6.55;;;4.03;;
50355;SDS011;36264;51.296;-0.602;2023-01-29T10:34:47;6.57;;;4.05;;
50355;SDS011;36264;51.296;-0.602;2023-01-29T10:37:17;6.03;;;3.92;;
50355;SDS011;36264;51.296;-0.602;2023-01-29T10:39:47;7.28;;;4.30;;
50355;SDS011;36264;51.296;-0.602;2023-01-29T10:45:21;7.13;;;3.70;;
50355;SDS011;36264;51.296;-0.602;2023-01-29T10:51:11;8.13;;;4.05;;
50355;SDS011;36264;51.296;-0.602;2023-01-29T11:02:15;7.35;;;4.07;;
50355;SDS011;36264;51.296;-0.602;2023-01-29T11:04:43;5.88;;;3.70;;
50355;SDS011;36264;51.296;-0.602;2023-01-29T11:07:10;7.15;;;3.88;;
50355;SDS011;36264;51.296;-0.602;2023-01-29T11:12:29;6.10;;;3.47;;
50355;SDS011;36264;51.296;-0.602;2023-01-29T11:15:04;6.82;;;2.90;;
50355;SDS011;36264;51.296;-0.602;2023-01-29T11:17:39;5.50;;;3.22;;
50355;SDS011;36264;51.296;-0.602;2023-01-29T11:20:26;5.30;;;2.85;;
50355;SDS011;36264;51.296;-0.602;2023-01-29T11:22:52;4.82;;;2.80;;
50355;SDS011;36264;51.296;-0.602;2023-01-29T11:25:19;5.03;;;2.88;;
50355;SDS011;36264;51.296;-0.602;2023-01-29T11:27:54;5.70;;;2.97;;
50355;SDS011;36264;51.296;-0.602;2023-01-29T11:30:28;5.82;;;2.85;;
50355;SDS011;36264;51.296;-0.602;2023-01-29T11:35:22;4.57;;;2.78;;
50355;SDS011;36264;51.296;-0.602;2023-01-29T11:37:49;4.88;;;2.70;;
50355;SDS011;36264;51.296;-0.602;2023-01-29T11:42:43;5.82;;;2.53;;
50355;SDS011;36264;51.296;-0.602;2023-01-29T11:47:49;5.20;;;2.90;;
50355;SDS011;36264;51.296;-0.602;2023-01-29T11:50:19;5.03;;;2.85;;
50355;SDS011;36264;51.296;-0.602;2023-01-29T11:52:47;5.78;;;3.05;;
50355;SDS011;36264;51.296;-0.602;2023-01-29T11:55:15;4.95;;;2.92;;
50355;SDS011;36264;51.296;-0.602;2023-01-29T11:57:53;6.20;;;2.83;;
50355;SDS011;36264;51.296;-0.602;2023-01-29T12:00:29;4.80;;;2.78;;
50355;SDS011;36264;51.296;-0.602;2023-01-29T12:05:25;5.55;;;2.80;;
50355;SDS011;36264;51.296;-0.602;2023-01-29T12:07:53;5.50;;;2.70;;
50355;SDS011;36264;51.296;-0.602;2023-01-29T12:10:31;5.03;;;2.50;;
50355;SDS011;36264;51.296;-0.602;2023-01-29T12:15:36;5.47;;;3.10;;
50355;SDS011;36264;51.296;-0.602;2023-01-29T12:21:00;4.43;;;2.78;;
50355;SDS011;36264;51.296;-0.602;2023-01-29T12:23:31;5.82;;;2.83;;
50355;SDS011;36264;51.296;-0.602;2023-01-29T12:26:07;4.90;;;2.78;;
50355;SDS011;36264;51.296;-0.602;2023-01-29T12:31:50;4.55;;;2.65;;
50355;SDS011;36264;51.296;-0.602;2023-01-29T12:37:20;5.80;;;2.70;;
50355;SDS011;36264;51.296;-0.602;2023-01-29T12:39:48;6.43;;;2.90;;
50355;SDS011;36264;51.296;-0.602;2023-01-29T12:42:19;4.32;;;2.72;;
50355;SDS011;36264;51.296;-0.602;2023-01-29T12:45:02;6.00;;;2.65;;
50355;SDS011;36264;51.296;-0.602;2023-01-29T12:47:36;4.20;;;2.67;;
50355;SDS011;36264;51.296;-0.602;2023-01-29T12:52:52;4.60;;;2.80;;
50355;SDS011;36264;51.296;-0.602;2023-01-29T12:55:24;4.40;;;2.40;;
50355;SDS011;36264;51.296;-0.602;2023-01-29T13:00:24;4.25;;;2.58;;
50355;SDS011;36264;51.296;-0.602;2023-01-29T13:02:58;4.40;;;2.45;;
50355;SDS011;36264;51.296;-0.602;2023-01-29T13:05:38;4.30;;;2.30;;
50355;SDS011;36264;51.296;-0.602;2023-01-29T13:08:16;4.95;;;3.22;;
50355;SDS011;36264;51.296;-0.602;2023-01-29T13:10:47;4.80;;;2.47;;
50355;SDS011;36264;51.296;-0.602;2023-01-29T13:15:40;4.60;;;2.63;;
50355;SDS011;36264;51.296;-0.602;2023-01-29T13:20:58;3.90;;;2.45;;
50355;SDS011;36264;51.296;-0.602;2023-01-29T13:23:29;3.20;;;2.10;;
50355;SDS011;36264;51.296;-0.602;2023-01-29T13:26:03;4.63;;;1.95;;
50355;SDS011;36264;51.296;-0.602;2023-01-29T13:28:29;3.80;;;2.30;;
50355;SDS011;36264;51.296;-0.602;2023-01-29T13:31:12;4.18;;;2.40;;
50355;SDS011;36264;51.296;-0.602;2023-01-29T13:36:41;4.80;;;2.20;;
50355;SDS011;36264;51.296;-0.602;2023-01-29T13:39:19;4.03;;;2.10;;
50355;SDS011;36264;51.296;-0.602;2023-01-29T13:41:54;4.07;;;2.03;;
50355;SDS011;36264;51.296;-0.602;2023-01-29T13:46:52;4.00;;;1.95;;
50355;SDS011;36264;51.296;-0.602;2023-01-29T13:49:24;3.83;;;1.70;;
50355;SDS011;36264;51.296;-0.602;2023-01-29T13:51:53;5.03;;;1.95;;
50355;SDS011;36264;51.296;-0.602;2023-01-29T13:54:20;4.43;;;2.15;;
50355;SDS011;36264;51.296;-0.602;2023-01-29T13:56:59;3.05;;;1.80;;
50355;SDS011;36264;51.296;-0.602;2023-01-29T14:00:13;3.55;;;1.90;;
50355;SDS011;36264;51.296;-0.602;2023-01-29T14:02:18;3.30;;;1.58;;
50355;SDS011;36264;51.296;-0.602;2023-01-29T14:04:45;3.17;;;1.90;;
50355;SDS011;36264;51.296;-0.602;2023-01-29T14:10:12;2.78;;;1.80;;
50355;SDS011;36264;51.296;-0.602;2023-01-29T14:12:39;3.25;;;1.92;;
50355;SDS011;36264;51.296;-0.602;2023-01-29T14:20:38;2.10;;;1.15;;
50355;SDS011;36264;51.296;-0.602;2023-01-29T14:23:04;2.05;;;1.45;;
50355;SDS011;36264;51.296;-0.602;2023-01-29T14:25:34;2.97;;;1.48;;
50355;SDS011;36264;51.296;-0.602;2023-01-29T14:28:02;3.60;;;1.67;;
50355;SDS011;36264;51.296;-0.602;2023-01-29T14:30:37;1.55;;;1.10;;
50355;SDS011;36264;51.296;-0.602;2023-01-29T14:33:04;2.38;;;1.35;;
50355;SDS011;36264;51.296;-0.602;2023-01-29T14:35:48;2.33;;;1.42;;
50355;SDS011;36264;51.296;-0.602;2023-01-29T14:38:15;2.08;;;1.35;;
50355;SDS011;36264;51.296;-0.602;2023-01-29T14:40:41;2.28;;;1.45;;
50355;SDS011;36264;51.296;-0.602;2023-01-29T14:43:17;2.60;;;1.42;;
50355;SDS011;36264;51.296;-0.602;2023-01-29T14:45:45;1.73;;;1.30;;
50355;SDS011;36264;51.296;-0.602;2023-01-29T14:51:11;1.60;;;1.30;;
50355;SDS011;36264;51.296;-0.602;2023-01-29T14:53:44;2.30;;;1.35;;
50355;SDS011;36264;51.296;-0.602;2023-01-29T14:58:56;2.20;;;1.13;;
50355;SDS011;36264;51.296;-0.602;2023-01-29T15:01:42;1.75;;;1.25;;
50355;SDS011;36264;51.296;-0.602;2023-01-29T15:04:45;1.60;;;1.05;;
50355;SDS011;36264;51.296;-0.602;2023-01-29T15:10:05;0.80;;;0.80;;
50355;SDS011;36264;51.296;-0.602;2023-01-29T15:12:39;1.90;;;1.17;;
50355;SDS011;36264;51.296;-0.602;2023-01-29T15:20:32;1.98;;;0.98;;
50355;SDS011;36264;51.296;-0.602;2023-01-29T15:23:26;1.13;;;0.90;;
50355;SDS011;36264;51.296;-0.602;2023-01-29T15:25:55;1.15;;;1.05;;
50355;SDS011;36264;51.296;-0.602;2023-01-29T15:28:25;1.63;;;1.10;;
50355;SDS011;36264;51.296;-0.602;2023-01-29T15:30:56;1.33;;;1.10;;
50355;SDS011;36264;51.296;-0.602;2023-01-29T15:33:23;1.75;;;1.15;;
50355;SDS011;36264;51.296;-0.602;2023-01-29T15:35:54;1.52;;;1.05;;
50355;SDS011;36264;51.296;-0.602;2023-01-29T15:38:23;1.65;;;1.15;;
50355;SDS011;36264;51.296;-0.602;2023-01-29T15:40:54;2.50;;;1.27;;
50355;SDS011;36264;51.296;-0.602;2023-01-29T15:43:21;3.60;;;1.50;;
50355;SDS011;36264;51.296;-0.602;2023-01-29T15:45:49;2.72;;;1.60;;
50355;SDS011;36264;51.296;-0.602;2023-01-29T15:48:19;1.85;;;1.25;;
50355;SDS011;36264;51.296;-0.602;2023-01-29T15:50:48;2.53;;;1.30;;
50355;SDS011;36264;51.296;-0.602;2023-01-29T15:53:19;1.95;;;1.10;;
50355;SDS011;36264;51.296;-0.602;2023-01-29T15:55:49;2.30;;;1.33;;
50355;SDS011;36264;51.296;-0.602;2023-01-29T15:58:19;1.50;;;1.00;;
50355;SDS011;36264;51.296;-0.602;2023-01-29T16:00:53;1.75;;;1.20;;
50355;SDS011;36264;51.296;-0.602;2023-01-29T16:03:21;1.42;;;1.10;;
50355;SDS011;36264;51.296;-0.602;2023-01-29T16:05:48;2.95;;;1.30;;
50355;SDS011;36264;51.296;-0.602;2023-01-29T16:08:14;1.50;;;0.98;;
50355;SDS011;36264;51.296;-0.602;2023-01-29T16:10:40;2.03;;;1.05;;
50355;SDS011;36264;51.296;-0.602;2023-01-29T16:13:18;2.15;;;1.25;;
50355;SDS011;36264;51.296;-0.602;2023-01-29T16:23:53;1.75;;;1.20;;
50355;SDS011;36264;51.296;-0.602;2023-01-29T16:26:23;1.27;;;1.00;;
50355;SDS011;36264;51.296;-0.602;2023-01-29T16:28:51;1.92;;;1.30;;
50355;SDS011;36264;51.296;-0.602;2023-01-29T16:31:20;2.13;;;1.00;;
50355;SDS011;36264;51.296;-0.602;2023-01-29T16:33:49;1.98;;;1.20;;
50355;SDS011;36264;51.296;-0.602;2023-01-29T16:36:19;2.17;;;1.38;;
50355;SDS011;36264;51.296;-0.602;2023-01-29T16:38:52;1.77;;;1.00;;
50355;SDS011;36264;51.296;-0.602;2023-01-29T16:51:52;2.30;;;1.27;;
50355;SDS011;36264;51.296;-0.602;2023-01-29T16:54:21;3.58;;;1.40;;
50355;SDS011;36264;51.296;-0.602;2023-01-29T16:56:50;1.90;;;1.40;;
50355;SDS011;36264;51.296;-0.602;2023-01-29T16:59:17;2.55;;;1.30;;
50355;SDS011;36264;51.296;-0.602;2023-01-29T17:01:50;3.10;;;1.67;;
50355;SDS011;36264;51.296;-0.602;2023-01-29T17:04:19;2.45;;;1.23;;
50355;SDS011;36264;51.296;-0.602;2023-01-29T17:06:45;1.92;;;1.35;;
50355;SDS011;36264;51.296;-0.602;2023-01-29T17:09:20;2.05;;;1.30;;
50355;SDS011;36264;51.296;-0.602;2023-01-29T17:12:00;2.45;;;1.58;;
50355;SDS011;36264;51.296;-0.602;2023-01-29T17:14:29;1.75;;;1.27;;
50355;SDS011;36264;51.296;-0.602;2023-01-29T17:17:03;1.27;;;0.98;;
50355;SDS011;36264;51.296;-0.602;2023-01-29T17:19:31;1.30;;;1.00;;
50355;SDS011;36264;51.296;-0.602;2023-01-29T17:21:56;1.98;;;1.00;;
50355;SDS011;36264;51.296;-0.602;2023-01-29T17:24:23;1.70;;;0.80;;
50355;SDS011;36264;51.296;-0.602;2023-01-29T17:26:49;1.02;;;0.82;;
50355;SDS011;36264;51.296;-0.602;2023-01-29T17:29:16;1.45;;;1.02;;
50355;SDS011;36264;51.296;-0.602;2023-01-29T17:31:44;1.92;;;1.00;;
50355;SDS011;36264;51.296;-0.602;2023-01-29T17:34:10;1.30;;;0.80;;
50355;SDS011;36264;51.296;-0.602;2023-01-29T17:36:38;0.80;;;0.65;;
50355;SDS011;36264;51.296;-0.602;2023-01-29T17:39:15;1.38;;;1.00;;
50355;SDS011;36264;51.296;-0.602;2023-01-29T17:41:43;2.25;;;0.75;;
50355;SDS011;36264;51.296;-0.602;2023-01-29T17:44:11;0.60;;;0.60;;
50355;SDS011;36264;51.296;-0.602;2023-01-29T17:46:36;1.02;;;0.70;;